Time;durP1;ratioP1;P1;durP2;ratioP2;P2;SDS_P1;SDS_P2;PMS_P1;PMS_P2;Temp;Humidity;BMP_temperature;BMP_pressure;BME280_temperature;BME280_humidity;BME280_pressure;Samples;Min_cycle;Max_cycle;Signal;HPM_P1;HPM_P2
2022/12/19 00:01:56;;;;;;;39.38;22.30;;;;;;;;;;5000589;28;20034;-73
2022/12/19 00:04:22;;;;;;;44.17;25.63;;;;;;;;;;5003118;28;20037;-74
2022/12/19 00:06:48;;;;;;;32.13;20.65;;;;;;;;;;5003343;28;20060;-73
2022/12/19 00:09:14;;;;;;;38.97;22.67;;;;;;;;;;4998843;28;20477;-73
2022/12/19 00:11:41;;;;;;;39.03;22.77;;;;;;;;;;4999483;28;20124;-73
2022/12/19 00:14:09;;;;;;;35.70;21.40;;;;;;;;;;4998904;28;20026;-73
2022/12/19 00:16:34;;;;;;;38.50;20.35;;;;;;;;;;5003777;28;20084;-73
2022/12/19 00:19:00;;;;;;;49.03;28.25;;;;;;;;;;5001784;28;20030;-73
2022/12/19 00:21:30;;;;;;;43.40;25.55;;;;;;;;;;5001917;28;20043;-73
2022/12/19 00:23:56;;;;;;;43.15;25.55;;;;;;;;;;4997351;28;20030;-73
2022/12/19 00:26:22;;;;;;;39.47;24.75;;;;;;;;;;4999875;28;20121;-73
2022/12/19 00:28:50;;;;;;;52.35;25.98;;;;;;;;;;4994392;28;20435;-73
2022/12/19 00:31:17;;;;;;;47.42;26.77;;;;;;;;;;5007633;28;20501;-73
2022/12/19 00:33:43;;;;;;;42.80;22.52;;;;;;;;;;4995484;28;20492;-73
2022/12/19 00:36:32;;;;;;;44.50;26.10;;;;;;;;;;5005286;28;20087;-73
2022/12/19 00:38:59;;;;;;;65.55;33.50;;;;;;;;;;4992515;28;20073;-73
2022/12/19 00:41:26;;;;;;;54.42;33.10;;;;;;;;;;5000341;28;20038;-73
2022/12/19 00:43:53;;;;;;;62.97;33.85;;;;;;;;;;5000507;28;20108;-73
2022/12/19 00:46:19;;;;;;;74.82;40.42;;;;;;;;;;5004238;28;20187;-73
2022/12/19 00:48:45;;;;;;;50.42;27.60;;;;;;;;;;4993371;28;20030;-72
2022/12/19 00:51:13;;;;;;;60.38;32.22;;;;;;;;;;5003246;28;20578;-72
2022/12/19 00:53:39;;;;;;;47.88;26.73;;;;;;;;;;4998451;28;20026;-72
2022/12/19 00:56:07;;;;;;;28.63;17.17;;;;;;;;;;4997755;28;20029;-73
2022/12/19 00:58:33;;;;;;;21.83;12.85;;;;;;;;;;5003537;28;20037;-73
2022/12/19 01:01:04;;;;;;;18.98;11.27;;;;;;;;;;4996488;28;20042;-72
2022/12/19 01:03:30;;;;;;;18.88;11.13;;;;;;;;;;4998134;28;20036;-73
2022/12/19 01:05:56;;;;;;;19.92;11.02;;;;;;;;;;4995402;28;20401;-73
2022/12/19 01:08:22;;;;;;;24.23;13.25;;;;;;;;;;5001814;28;20029;-72
2022/12/19 01:10:49;;;;;;;20.55;13.02;;;;;;;;;;4996335;28;20049;-72
2022/12/19 01:13:15;;;;;;;32.17;19.25;;;;;;;;;;4996908;28;20022;-72
2022/12/19 01:15:41;;;;;;;25.63;14.85;;;;;;;;;;5003094;28;20092;-73
2022/12/19 01:18:09;;;;;;;24.90;14.82;;;;;;;;;;5000627;28;20492;-73
2022/12/19 01:20:37;;;;;;;23.02;14.95;;;;;;;;;;5000197;28;20138;-72
2022/12/19 01:23:03;;;;;;;23.90;14.88;;;;;;;;;;5006205;28;20037;-72
2022/12/19 01:25:29;;;;;;;28.65;16.65;;;;;;;;;;5002407;28;20084;-72
2022/12/19 01:27:56;;;;;;;23.92;15.95;;;;;;;;;;5003014;28;20382;-72
2022/12/19 01:30:22;;;;;;;26.00;17.52;;;;;;;;;;4993995;28;20461;-72
2022/12/19 01:32:48;;;;;;;29.38;17.75;;;;;;;;;;5001756;28;20503;-72
2022/12/19 01:35:14;;;;;;;33.67;19.55;;;;;;;;;;5001166;28;20029;-73
2022/12/19 01:37:40;;;;;;;26.60;16.25;;;;;;;;;;5000625;28;20113;-72
2022/12/19 01:40:06;;;;;;;25.45;16.67;;;;;;;;;;5006917;28;20064;-73
2022/12/19 01:42:36;;;;;;;27.00;17.48;;;;;;;;;;5003016;28;20501;-72
2022/12/19 01:45:05;;;;;;;26.80;17.02;;;;;;;;;;5006067;28;20493;-73
2022/12/19 01:47:32;;;;;;;27.27;17.42;;;;;;;;;;5005621;28;20045;-72
2022/12/19 01:49:58;;;;;;;27.38;17.55;;;;;;;;;;5004320;28;20038;-73
2022/12/19 01:52:24;;;;;;;24.42;15.55;;;;;;;;;;5005432;28;20072;-72
2022/12/19 01:54:50;;;;;;;26.95;16.75;;;;;;;;;;4999713;28;20037;-72
2022/12/19 01:57:17;;;;;;;25.33;17.48;;;;;;;;;;5005461;28;20033;-72
2022/12/19 01:59:48;;;;;;;26.52;18.42;;;;;;;;;;5007485;28;20062;-72
2022/12/19 02:02:17;;;;;;;29.25;19.33;;;;;;;;;;5001641;28;20404;-72
2022/12/19 02:04:45;;;;;;;24.85;15.55;;;;;;;;;;5002247;28;20188;-73
2022/12/19 02:07:13;;;;;;;25.95;17.25;;;;;;;;;;5005153;28;20092;-72
2022/12/19 02:09:39;;;;;;;30.85;18.80;;;;;;;;;;5001778;28;20776;-73
2022/12/19 02:12:05;;;;;;;40.17;25.42;;;;;;;;;;5005168;28;20109;-72
2022/12/19 02:14:32;;;;;;;42.70;30.25;;;;;;;;;;5002187;28;20029;-73
2022/12/19 02:17:07;;;;;;;24.80;17.65;;;;;;;;;;4998305;28;20625;-73
2022/12/19 02:19:52;;;;;;;29.17;16.88;;;;;;;;;;5009592;28;20041;-72
2022/12/19 02:22:21;;;;;;;28.73;18.63;;;;;;;;;;5007162;28;20046;-73
2022/12/19 02:24:56;;;;;;;22.98;14.10;;;;;;;;;;5004435;28;20026;-73
2022/12/19 02:27:22;;;;;;;21.83;14.15;;;;;;;;;;5002695;28;20439;-72
2022/12/19 02:29:54;;;;;;;27.35;16.67;;;;;;;;;;5006172;28;20062;-72
2022/12/19 02:32:23;;;;;;;25.55;15.98;;;;;;;;;;5005704;28;20485;-72
2022/12/19 02:34:59;;;;;;;26.25;18.05;;;;;;;;;;5007125;28;20038;-73
2022/12/19 02:37:29;;;;;;;26.63;16.48;;;;;;;;;;5000665;28;20113;-73
2022/12/19 02:40:02;;;;;;;31.42;19.33;;;;;;;;;;5000375;28;20489;-73
2022/12/19 02:42:31;;;;;;;32.65;20.45;;;;;;;;;;5003076;28;20097;-73
2022/12/19 02:44:58;;;;;;;38.22;24.92;;;;;;;;;;5006521;28;20482;-73
2022/12/19 02:47:25;;;;;;;34.88;22.27;;;;;;;;;;5001126;28;20034;-73
2022/12/19 02:49:51;;;;;;;50.95;33.38;;;;;;;;;;5004128;28;20666;-73
2022/12/19 02:52:19;;;;;;;33.92;24.25;;;;;;;;;;5001655;28;20042;-73
2022/12/19 02:54:47;;;;;;;29.15;21.17;;;;;;;;;;5002472;28;20034;-73
2022/12/19 02:57:33;;;;;;;32.58;22.17;;;;;;;;;;5000642;28;20058;-73
2022/12/19 03:00:05;;;;;;;33.38;23.13;;;;;;;;;;5002991;28;20061;-73
2022/12/19 03:02:31;;;;;;;;;;;;;;;;;;5001774;28;20148;-72
2022/12/19 03:05:02;;;;;;;30.77;17.58;;;;;;;;;;4998239;28;20008;-73
2022/12/19 03:07:43;;;;;;;28.77;16.10;;;;;;;;;;5003595;28;20042;-73
2022/12/19 03:10:22;;;;;;;28.45;15.85;;;;;;;;;;5001210;28;20026;-73
2022/12/19 03:12:51;;;;;;;25.98;16.30;;;;;;;;;;4994205;28;20504;-73
2022/12/19 03:15:17;;;;;;;27.90;15.93;;;;;;;;;;4998982;28;20022;-73
2022/12/19 03:17:43;;;;;;;25.73;16.05;;;;;;;;;;5000696;28;20618;-73
2022/12/19 03:20:21;;;;;;;28.63;18.90;;;;;;;;;;4991054;28;20030;-72
2022/12/19 03:22:47;;;;;;;25.65;17.45;;;;;;;;;;4996982;28;20122;-72
2022/12/19 03:25:13;;;;;;;27.08;17.75;;;;;;;;;;5003603;28;20109;-72
2022/12/19 03:27:40;;;;;;;24.13;16.25;;;;;;;;;;5001093;28;20045;-73
2022/12/19 03:30:08;;;;;;;24.33;15.48;;;;;;;;;;5008601;28;20385;-71
2022/12/19 03:32:35;;;;;;;23.35;15.15;;;;;;;;;;5001227;28;20085;-72
2022/12/19 03:35:13;;;;;;;23.02;15.05;;;;;;;;;;5004835;28;20022;-72
2022/12/19 03:37:40;;;;;;;29.92;18.80;;;;;;;;;;4998174;28;20404;-72
2022/12/19 03:40:12;;;;;;;26.05;16.73;;;;;;;;;;5006775;28;20025;-72
2022/12/19 03:45:40;;;;;;;23.15;15.10;;;;;;;;;;4998612;28;20045;-72
2022/12/19 03:48:09;;;;;;;33.03;18.03;;;;;;;;;;4997244;28;20049;-72
2022/12/19 03:50:53;;;;;;;21.20;15.30;;;;;;;;;;5044141;23;20119;-72
2022/12/19 03:53:26;;;;;;;26.75;17.60;;;;;;;;;;5046602;28;20037;-72
2022/12/19 03:55:57;;;;;;;25.52;16.45;;;;;;;;;;5045177;28;20471;-72
2022/12/19 03:58:35;;;;;;;24.15;15.73;;;;;;;;;;5045748;28;20383;-72
2022/12/19 04:01:02;;;;;;;24.08;15.18;;;;;;;;;;5042979;28;20036;-73
2022/12/19 04:03:29;;;;;;;23.88;15.38;;;;;;;;;;5037001;28;20032;-72
2022/12/19 04:05:56;;;;;;;22.23;12.95;;;;;;;;;;5043733;28;20047;-72
2022/12/19 04:08:23;;;;;;;22.05;15.07;;;;;;;;;;5042425;28;20041;-72
2022/12/19 04:10:53;;;;;;;26.90;14.75;;;;;;;;;;5046182;28;20032;-72
2022/12/19 04:13:54;;;;;;;25.65;15.30;;;;;;;;;;5045386;28;20104;-72
2022/12/19 04:16:26;;;;;;;23.48;14.20;;;;;;;;;;4966792;28;20041;-72
2022/12/19 04:18:58;;;;;;;23.92;15.93;;;;;;;;;;5023929;28;20041;-72
2022/12/19 04:21:40;;;;;;;25.20;15.82;;;;;;;;;;5043902;28;20119;-72
2022/12/19 04:24:11;;;;;;;22.23;14.48;;;;;;;;;;5040379;28;20039;-73
2022/12/19 04:26:38;;;;;;;21.48;13.88;;;;;;;;;;5042629;28;20033;-72
2022/12/19 04:29:05;;;;;;;21.15;14.68;;;;;;;;;;5041833;28;20132;-72
2022/12/19 04:31:31;;;;;;;24.52;16.25;;;;;;;;;;5039071;28;20136;-72
2022/12/19 04:33:57;;;;;;;23.65;13.50;;;;;;;;;;5039912;28;20032;-72
2022/12/19 04:36:25;;;;;;;23.23;15.00;;;;;;;;;;5045590;28;20044;-72
2022/12/19 04:38:51;;;;;;;27.00;16.05;;;;;;;;;;5040340;28;20116;-72
2022/12/19 04:41:17;;;;;;;22.50;14.68;;;;;;;;;;5038427;28;20044;-72
2022/12/19 04:43:43;;;;;;;21.40;13.85;;;;;;;;;;5044664;28;20420;-72
2022/12/19 04:46:09;;;;;;;23.38;13.73;;;;;;;;;;5043168;28;20112;-73
2022/12/19 04:48:36;;;;;;;23.35;14.88;;;;;;;;;;5039736;28;20091;-72
2022/12/19 04:51:02;;;;;;;22.13;14.15;;;;;;;;;;5039479;28;20886;-72
2022/12/19 04:53:28;;;;;;;22.50;13.10;;;;;;;;;;5042755;28;20494;-72
2022/12/19 04:56:04;;;;;;;25.05;16.25;;;;;;;;;;5045870;28;20028;-72
2022/12/19 04:58:30;;;;;;;23.13;14.80;;;;;;;;;;5046975;28;20039;-72
2022/12/19 05:01:00;;;;;;;24.23;15.63;;;;;;;;;;5043132;28;20025;-72
2022/12/19 05:03:26;;;;;;;24.13;14.52;;;;;;;;;;5044961;28;20547;-72
2022/12/19 05:05:52;;;;;;;22.67;13.82;;;;;;;;;;5045640;28;20104;-72
2022/12/19 05:08:18;;;;;;;27.27;17.27;;;;;;;;;;5041913;28;20026;-72
2022/12/19 05:10:44;;;;;;;19.80;11.93;;;;;;;;;;5040076;28;20029;-72
2022/12/19 05:13:10;;;;;;;21.73;13.93;;;;;;;;;;5043011;28;20043;-72
2022/12/19 05:15:36;;;;;;;17.52;11.77;;;;;;;;;;5024331;28;20037;-72
2022/12/19 05:18:02;;;;;;;24.10;12.25;;;;;;;;;;5045602;28;20021;-72
2022/12/19 05:20:28;;;;;;;24.20;14.23;;;;;;;;;;5037192;28;20074;-73
2022/12/19 05:22:54;;;;;;;21.92;13.10;;;;;;;;;;5043907;28;20041;-72
2022/12/19 05:25:20;;;;;;;24.83;15.48;;;;;;;;;;5039088;28;20045;-72
2022/12/19 05:27:46;;;;;;;22.33;13.93;;;;;;;;;;5038917;28;20103;-72
2022/12/19 05:30:13;;;;;;;21.50;14.13;;;;;;;;;;5041836;28;20100;-73
2022/12/19 05:32:38;;;;;;;22.25;13.05;;;;;;;;;;5045121;28;20083;-72
2022/12/19 05:35:05;;;;;;;21.90;13.65;;;;;;;;;;5043550;28;20025;-73
2022/12/19 05:37:31;;;;;;;25.25;15.93;;;;;;;;;;5043773;28;20048;-72
2022/12/19 05:39:57;;;;;;;22.42;13.90;;;;;;;;;;5042992;28;20030;-72
2022/12/19 05:42:25;;;;;;;24.20;15.20;;;;;;;;;;5046357;28;20040;-72
2022/12/19 05:44:51;;;;;;;24.98;14.80;;;;;;;;;;5037354;28;20029;-72
2022/12/19 05:47:19;;;;;;;27.85;16.02;;;;;;;;;;5040685;28;20040;-73
2022/12/19 05:49:45;;;;;;;28.75;17.92;;;;;;;;;;5044631;28;20048;-73
2022/12/19 05:52:11;;;;;;;27.42;17.58;;;;;;;;;;5043214;28;20033;-73
2022/12/19 05:54:37;;;;;;;27.85;16.15;;;;;;;;;;5043249;28;20485;-72
2022/12/19 05:57:03;;;;;;;26.77;17.73;;;;;;;;;;5044760;28;20036;-72
2022/12/19 05:59:29;;;;;;;27.90;16.60;;;;;;;;;;5045526;28;20056;-73
2022/12/19 06:01:55;;;;;;;29.60;16.35;;;;;;;;;;5041807;28;20037;-72
2022/12/19 06:04:21;;;;;;;21.00;12.93;;;;;;;;;;5046373;28;20429;-72
2022/12/19 06:06:47;;;;;;;25.30;14.88;;;;;;;;;;5044661;28;20037;-73
2022/12/19 06:09:13;;;;;;;25.33;14.57;;;;;;;;;;5042180;28;20464;-73
2022/12/19 06:11:39;;;;;;;30.13;14.82;;;;;;;;;;5031839;28;20038;-73
2022/12/19 06:14:05;;;;;;;36.30;18.67;;;;;;;;;;5043294;28;20112;-72
2022/12/19 06:16:31;;;;;;;42.85;21.98;;;;;;;;;;5037918;28;20048;-72
2022/12/19 06:18:57;;;;;;;41.38;22.55;;;;;;;;;;5040250;28;20034;-73
2022/12/19 06:21:23;;;;;;;40.75;23.23;;;;;;;;;;5044338;28;20037;-72
2022/12/19 06:23:50;;;;;;;40.70;25.17;;;;;;;;;;5049585;28;20119;-74
2022/12/19 06:26:16;;;;;;;39.20;24.25;;;;;;;;;;5045517;28;20129;-72
2022/12/19 06:28:42;;;;;;;75.28;39.80;;;;;;;;;;5047751;28;20041;-72
2022/12/19 06:31:10;;;;;;;87.70;47.38;;;;;;;;;;5038361;28;20036;-72
2022/12/19 06:33:36;;;;;;;54.70;31.73;;;;;;;;;;5047353;28;20174;-72
2022/12/19 06:36:02;;;;;;;54.50;32.55;;;;;;;;;;5048411;28;20056;-72
2022/12/19 06:38:29;;;;;;;53.00;33.33;;;;;;;;;;5047361;28;20544;-72
2022/12/19 06:43:40;;;;;;;55.13;34.80;;;;;;;;;;5045122;28;20048;-72
2022/12/19 06:46:06;;;;;;;40.85;24.95;;;;;;;;;;5043683;28;20037;-72
2022/12/19 06:48:32;;;;;;;37.95;26.27;;;;;;;;;;5046570;28;20060;-73
2022/12/19 06:50:58;;;;;;;40.88;26.10;;;;;;;;;;5047820;28;20053;-72
2022/12/19 06:53:24;;;;;;;42.53;28.67;;;;;;;;;;5047261;28;20037;-71
2022/12/19 06:55:52;;;;;;;40.20;27.85;;;;;;;;;;5048112;28;20112;-72
2022/12/19 06:58:18;;;;;;;50.15;33.90;;;;;;;;;;5043290;28;20017;-72
2022/12/19 07:00:44;;;;;;;44.97;30.77;;;;;;;;;;5047768;28;20082;-72
2022/12/19 07:03:12;;;;;;;56.00;34.58;;;;;;;;;;5046018;28;20025;-72
2022/12/19 07:05:39;;;;;;;56.70;34.92;;;;;;;;;;5042610;28;20107;-72
2022/12/19 07:08:05;;;;;;;53.58;32.88;;;;;;;;;;5038368;28;20530;-72
2022/12/19 07:10:31;;;;;;;49.75;31.45;;;;;;;;;;5044919;28;20035;-72
2022/12/19 07:12:57;;;;;;;47.47;32.28;;;;;;;;;;5044739;28;20122;-72
2022/12/19 07:15:23;;;;;;;50.67;32.17;;;;;;;;;;5046495;28;20167;-72
2022/12/19 07:17:49;;;;;;;46.47;27.60;;;;;;;;;;5046641;28;20017;-72
2022/12/19 07:20:16;;;;;;;43.88;27.65;;;;;;;;;;5047820;28;20033;-71
2022/12/19 07:22:42;;;;;;;45.20;28.42;;;;;;;;;;5043609;28;20032;-73
2022/12/19 07:25:08;;;;;;;46.30;29.67;;;;;;;;;;5040793;28;20153;-72
2022/12/19 07:27:34;;;;;;;46.63;29.90;;;;;;;;;;5046506;28;20025;-72
2022/12/19 07:30:00;;;;;;;48.92;28.63;;;;;;;;;;5042561;28;20045;-72
2022/12/19 07:32:26;;;;;;;57.97;35.17;;;;;;;;;;5044059;28;20036;-72
2022/12/19 07:34:53;;;;;;;56.75;37.20;;;;;;;;;;5044510;28;20407;-72
2022/12/19 07:37:20;;;;;;;52.47;32.88;;;;;;;;;;5039442;28;20068;-72
2022/12/19 07:39:46;;;;;;;51.47;32.60;;;;;;;;;;5045926;28;20490;-72
2022/12/19 07:42:12;;;;;;;53.15;32.83;;;;;;;;;;5047472;28;20663;-73
2022/12/19 07:44:38;;;;;;;52.35;33.47;;;;;;;;;;5044717;28;20037;-73
2022/12/19 07:47:04;;;;;;;56.35;36.08;;;;;;;;;;5046542;28;20111;-72
2022/12/19 07:49:30;;;;;;;49.22;32.13;;;;;;;;;;5043713;28;20083;-73
2022/12/19 07:51:56;;;;;;;46.45;31.13;;;;;;;;;;5045033;28;20786;-72
2022/12/19 07:54:22;;;;;;;45.20;31.88;;;;;;;;;;5040681;28;20037;-73
2022/12/19 07:56:48;;;;;;;51.88;34.67;;;;;;;;;;5045828;28;20465;-72
2022/12/19 07:59:14;;;;;;;52.03;34.40;;;;;;;;;;5046852;28;20039;-72
2022/12/19 08:01:40;;;;;;;44.38;30.35;;;;;;;;;;5043407;28;20036;-72
2022/12/19 08:04:06;;;;;;;43.70;28.70;;;;;;;;;;5042691;28;20064;-72
2022/12/19 08:06:32;;;;;;;44.85;33.10;;;;;;;;;;5045813;28;20068;-73
2022/12/19 08:08:58;;;;;;;45.58;31.95;;;;;;;;;;5045033;28;20037;-72
2022/12/19 08:11:28;;;;;;;46.63;31.98;;;;;;;;;;5044330;28;20063;-72
2022/12/19 08:13:54;;;;;;;42.67;30.60;;;;;;;;;;5038885;28;20032;-72
2022/12/19 08:16:20;;;;;;;47.60;33.78;;;;;;;;;;5044347;28;20044;-72
2022/12/19 08:18:46;;;;;;;48.85;35.28;;;;;;;;;;5047836;28;20039;-72
2022/12/19 08:21:13;;;;;;;70.03;48.38;;;;;;;;;;5045293;28;20028;-73
2022/12/19 08:23:39;;;;;;;67.88;48.30;;;;;;;;;;5041788;28;20037;-72
2022/12/19 08:26:10;;;;;;;57.35;43.15;;;;;;;;;;5044382;28;20024;-72
2022/12/19 08:28:36;;;;;;;52.35;38.50;;;;;;;;;;5042925;28;20111;-72
2022/12/19 08:31:06;;;;;;;56.70;43.15;;;;;;;;;;5041796;28;20135;-72
2022/12/19 08:33:32;;;;;;;52.75;35.70;;;;;;;;;;5044023;28;20044;-72
2022/12/19 08:35:58;;;;;;;55.45;39.75;;;;;;;;;;5046051;28;20021;-72
2022/12/19 08:38:24;;;;;;;56.78;42.17;;;;;;;;;;5042305;28;20524;-73
2022/12/19 08:40:53;;;;;;;64.20;43.63;;;;;;;;;;5044320;28;20028;-72
2022/12/19 08:43:20;;;;;;;81.85;51.92;;;;;;;;;;5045832;28;20427;-72
2022/12/19 08:45:48;;;;;;;80.78;52.55;;;;;;;;;;5045417;28;20032;-72
2022/12/19 08:48:15;;;;;;;76.43;52.08;;;;;;;;;;5043206;28;20384;-72
2022/12/19 08:50:48;;;;;;;84.28;56.80;;;;;;;;;;5042193;28;20052;-73
2022/12/19 08:53:14;;;;;;;77.38;51.97;;;;;;;;;;5041959;28;20039;-72
2022/12/19 08:55:40;;;;;;;79.75;51.15;;;;;;;;;;5042549;28;20400;-72
2022/12/19 08:58:05;;;;;;;77.80;50.08;;;;;;;;;;5045005;28;20033;-72
2022/12/19 09:00:31;;;;;;;69.07;44.67;;;;;;;;;;5039960;28;20070;-72
2022/12/19 09:02:58;;;;;;;79.78;55.28;;;;;;;;;;5040840;28;20024;-73
2022/12/19 09:05:24;;;;;;;78.80;54.05;;;;;;;;;;5041503;28;20127;-72
2022/12/19 09:07:50;;;;;;;70.13;47.65;;;;;;;;;;5041393;28;20116;-73
2022/12/19 09:10:16;;;;;;;102.13;70.93;;;;;;;;;;5046704;28;20102;-72
2022/12/19 09:12:42;;;;;;;98.63;69.45;;;;;;;;;;5043773;28;20381;-73
2022/12/19 09:15:08;;;;;;;79.10;55.03;;;;;;;;;;5042374;28;20025;-72
2022/12/19 09:17:34;;;;;;;74.00;51.45;;;;;;;;;;5041332;28;20113;-72
2022/12/19 09:20:00;;;;;;;63.03;45.33;;;;;;;;;;5043692;28;20108;-72
2022/12/19 09:22:26;;;;;;;62.42;44.10;;;;;;;;;;5041629;28;20098;-72
2022/12/19 09:24:52;;;;;;;60.63;44.10;;;;;;;;;;5045897;28;20575;-73
2022/12/19 09:27:18;;;;;;;58.45;44.13;;;;;;;;;;5043780;28;20103;-72
2022/12/19 09:29:44;;;;;;;55.85;41.20;;;;;;;;;;5043224;28;20033;-72
2022/12/19 09:32:11;;;;;;;46.33;32.55;;;;;;;;;;5043321;28;20116;-72
2022/12/19 09:34:37;;;;;;;65.70;48.30;;;;;;;;;;5039426;28;20029;-72
2022/12/19 09:37:03;;;;;;;70.45;52.95;;;;;;;;;;5039877;28;20024;-72
2022/12/19 09:39:29;;;;;;;62.70;46.13;;;;;;;;;;5040130;28;20040;-72
2022/12/19 09:41:55;;;;;;;53.83;38.92;;;;;;;;;;5040714;28;20062;-72
2022/12/19 09:44:34;;;;;;;54.33;37.47;;;;;;;;;;5040452;28;20475;-72
2022/12/19 09:47:01;;;;;;;58.70;37.65;;;;;;;;;;5039862;28;20112;-73
2022/12/19 09:49:48;;;;;;;56.78;35.28;;;;;;;;;;5042271;28;20503;-72
2022/12/19 09:52:26;;;;;;;62.00;46.35;;;;;;;;;;5040835;28;20037;-74
2022/12/19 09:54:54;;;;;;;56.33;36.40;;;;;;;;;;5045094;28;20051;-71
2022/12/19 09:57:26;;;;;;;51.75;36.85;;;;;;;;;;5045611;28;20197;-71
2022/12/19 09:59:57;;;;;;;41.47;30.17;;;;;;;;;;5040101;28;20138;-74
2022/12/19 10:02:40;;;;;;;36.58;26.13;;;;;;;;;;5044067;28;20041;-72
2022/12/19 10:05:14;;;;;;;30.40;20.85;;;;;;;;;;5045261;28;20539;-74
2022/12/19 10:07:40;;;;;;;42.75;30.50;;;;;;;;;;5044175;28;20044;-74
2022/12/19 10:10:06;;;;;;;50.25;34.33;;;;;;;;;;5042009;28;20067;-74
2022/12/19 10:12:47;;;;;;;67.78;41.53;;;;;;;;;;5047070;28;20033;-71
2022/12/19 10:15:27;;;;;;;62.80;35.83;;;;;;;;;;5045791;28;20079;-72
2022/12/19 10:18:25;;;;;;;53.10;35.60;;;;;;;;;;5045887;28;20028;-71
2022/12/19 10:21:13;;;;;;;58.20;39.05;;;;;;;;;;4988259;28;20048;-72
2022/12/19 10:23:45;;;;;;;54.40;33.95;;;;;;;;;;5042650;28;20544;-71
2022/12/19 10:26:22;;;;;;;50.42;35.15;;;;;;;;;;5046253;28;20029;-73
2022/12/19 10:29:07;;;;;;;48.90;32.28;;;;;;;;;;5047134;28;20037;-73
2022/12/19 10:31:36;;;;;;;47.10;29.67;;;;;;;;;;5045918;28;20507;-73
2022/12/19 10:34:23;;;;;;;46.55;30.65;;;;;;;;;;5042276;28;20104;-73
2022/12/19 10:36:55;;;;;;;44.65;29.25;;;;;;;;;;5043502;28;20572;-72
2022/12/19 10:39:30;;;;;;;43.58;31.30;;;;;;;;;;5045966;28;20037;-73
2022/12/19 10:42:02;;;;;;;53.13;32.83;;;;;;;;;;5047240;28;20048;-71
2022/12/19 10:44:30;;;;;;;49.00;30.73;;;;;;;;;;5046753;28;20055;-73
2022/12/19 10:46:56;;;;;;;47.05;27.67;;;;;;;;;;5043648;28;20660;-73
2022/12/19 10:49:24;;;;;;;41.60;25.90;;;;;;;;;;5045187;28;20817;-73
2022/12/19 10:51:58;;;;;;;37.97;21.52;;;;;;;;;;5044910;28;20132;-73
2022/12/19 10:54:36;;;;;;;43.15;25.35;;;;;;;;;;5046048;28;20468;-73
2022/12/19 10:57:21;;;;;;;39.83;22.92;;;;;;;;;;5047256;28;20040;-73
2022/12/19 11:00:00;;;;;;;45.60;29.27;;;;;;;;;;5045980;28;20029;-74
2022/12/19 11:02:32;;;;;;;37.53;26.17;;;;;;;;;;5020254;28;20103;-74
2022/12/19 11:04:58;;;;;;;41.90;26.70;;;;;;;;;;5041752;28;20038;-74
2022/12/19 11:07:24;;;;;;;38.65;26.55;;;;;;;;;;5042577;28;20040;-73
2022/12/19 11:09:50;;;;;;;33.05;22.52;;;;;;;;;;5043621;28;20033;-73
2022/12/19 11:12:17;;;;;;;32.35;20.67;;;;;;;;;;5040069;28;20638;-73
2022/12/19 11:15:03;;;;;;;26.60;16.33;;;;;;;;;;5040742;28;20025;-73
2022/12/19 11:17:32;;;;;;;27.02;14.63;;;;;;;;;;5043042;28;20463;-73
2022/12/19 11:19:58;;;;;;;26.55;15.23;;;;;;;;;;5045455;28;20033;-73
2022/12/19 11:22:25;;;;;;;33.58;19.35;;;;;;;;;;5046675;28;20039;-75
2022/12/19 11:24:52;;;;;;;40.88;27.92;;;;;;;;;;5047013;28;20040;-74
2022/12/19 11:27:30;;;;;;;38.33;26.92;;;;;;;;;;5047077;28;20111;-73
2022/12/19 11:29:57;;;;;;;33.35;22.67;;;;;;;;;;5042531;28;20032;-74
2022/12/19 11:32:40;;;;;;;53.63;34.72;;;;;;;;;;5044376;28;20041;-74
2022/12/19 11:35:05;;;;;;;;;;;;;;;;;;5044147;28;20044;-73
2022/12/19 11:37:40;;;;;;;56.78;34.88;;;;;;;;;;5041993;28;20275;-73
2022/12/19 11:40:06;;;;;;;54.28;34.42;;;;;;;;;;5045434;28;20033;-73
2022/12/19 11:42:35;;;;;;;48.22;30.80;;;;;;;;;;5043983;28;20032;-74
2022/12/19 11:45:10;;;;;;;40.17;25.50;;;;;;;;;;5043483;28;20426;-73
2022/12/19 11:48:03;;;;;;;42.65;27.45;;;;;;;;;;5043656;28;20037;-74
2022/12/19 11:50:31;;;;;;;42.85;27.27;;;;;;;;;;5039656;28;20083;-74
2022/12/19 11:52:57;;;;;;;37.30;23.65;;;;;;;;;;5041438;28;20021;-74
2022/12/19 11:55:26;;;;;;;62.08;37.35;;;;;;;;;;5043066;28;20620;-74
2022/12/19 11:57:52;;;;;;;56.80;34.42;;;;;;;;;;5047179;28;20081;-74
2022/12/19 12:00:20;;;;;;;61.15;35.90;;;;;;;;;;5044189;28;20039;-74
2022/12/19 12:02:46;;;;;;;53.95;33.58;;;;;;;;;;5046073;28;20039;-73
2022/12/19 12:05:31;;;;;;;48.90;32.13;;;;;;;;;;5044347;28;20041;-74
2022/12/19 12:08:08;;;;;;;36.08;22.90;;;;;;;;;;5042914;28;20037;-74
2022/12/19 12:10:36;;;;;;;45.97;27.38;;;;;;;;;;5046483;28;20198;-73
2022/12/19 12:13:08;;;;;;;42.90;25.73;;;;;;;;;;5042448;28;20032;-71
2022/12/19 12:15:52;;;;;;;34.25;20.63;;;;;;;;;;5046266;28;20095;-73
2022/12/19 12:18:28;;;;;;;35.13;20.92;;;;;;;;;;5044579;28;20068;-73
2022/12/19 12:21:07;;;;;;;36.85;19.90;;;;;;;;;;5047589;28;20032;-73
2022/12/19 12:23:48;;;;;;;37.38;21.35;;;;;;;;;;5042971;28;20040;-73
2022/12/19 12:26:21;;;;;;;22.77;12.32;;;;;;;;;;5043699;28;20091;-73
2022/12/19 12:29:14;;;;;;;15.52;8.68;;;;;;;;;;5045306;28;20451;-73
2022/12/19 12:31:51;;;;;;;13.98;7.30;;;;;;;;;;5008073;28;20045;-74
2022/12/19 12:34:28;;;;;;;14.90;8.73;;;;;;;;;;5043838;28;20495;-73
2022/12/19 12:36:57;;;;;;;28.58;15.18;;;;;;;;;;5037976;28;20208;-74
2022/12/19 12:39:36;;;;;;;25.92;13.20;;;;;;;;;;5044040;28;20052;-73
2022/12/19 12:42:21;;;;;;;25.08;14.30;;;;;;;;;;5042732;28;20025;-74
2022/12/19 12:44:47;;;;;;;25.08;14.05;;;;;;;;;;5044597;28;20037;-74
2022/12/19 12:47:17;;;;;;;24.77;13.27;;;;;;;;;;5045907;28;20025;-73
2022/12/19 12:49:45;;;;;;;26.05;15.13;;;;;;;;;;5039663;28;20049;-73
2022/12/19 12:52:15;;;;;;;27.70;14.65;;;;;;;;;;5044891;28;20090;-73
2022/12/19 12:54:43;;;;;;;27.48;14.65;;;;;;;;;;5045113;28;20037;-71
2022/12/19 12:57:35;;;;;;;28.60;15.52;;;;;;;;;;5039920;28;20043;-73
2022/12/19 13:00:20;;;;;;;64.53;33.42;;;;;;;;;;5036889;28;20087;-73
2022/12/19 13:02:55;;;;;;;78.20;36.25;;;;;;;;;;5038197;28;20056;-74
2022/12/19 13:05:39;;;;;;;55.90;29.08;;;;;;;;;;5037133;28;20480;-73
2022/12/19 13:08:23;;;;;;;44.20;24.48;;;;;;;;;;5040140;28;20068;-73
2022/12/19 13:10:54;;;;;;;42.97;21.67;;;;;;;;;;5025902;28;20629;-73
2022/12/19 13:13:40;;;;;;;28.17;15.02;;;;;;;;;;5037078;28;20103;-73
2022/12/19 13:16:42;;;;;;;29.60;17.08;;;;;;;;;;5044759;28;20028;-73
2022/12/19 13:19:15;;;;;;;32.28;16.30;;;;;;;;;;4991831;28;20061;-73
2022/12/19 13:22:00;;;;;;;26.55;16.70;;;;;;;;;;5032740;28;20049;-73
2022/12/19 13:24:36;;;;;;;32.30;15.75;;;;;;;;;;5044393;28;20036;-73
2022/12/19 13:27:02;;;;;;;27.50;14.95;;;;;;;;;;5025016;28;20033;-73
2022/12/19 13:29:29;;;;;;;28.13;15.35;;;;;;;;;;5043406;28;20120;-73
2022/12/19 13:32:08;;;;;;;43.15;25.13;;;;;;;;;;5039477;28;20045;-74
2022/12/19 13:34:37;;;;;;;45.80;26.25;;;;;;;;;;5039685;28;20036;-73
2022/12/19 13:37:09;;;;;;;41.45;26.25;;;;;;;;;;5041443;28;20445;-73
2022/12/19 13:39:39;;;;;;;38.15;22.13;;;;;;;;;;5043589;28;20029;-73
2022/12/19 13:44:50;;;;;;;39.58;24.35;;;;;;;;;;5043203;28;20179;-73
2022/12/19 13:47:16;;;;;;;42.00;27.98;;;;;;;;;;5039087;28;20062;-73
2022/12/19 13:49:43;;;;;;;38.97;21.70;;;;;;;;;;5044862;28;20049;-74
2022/12/19 13:52:10;;;;;;;34.88;18.98;;;;;;;;;;5021627;28;20479;-73
2022/12/19 13:54:44;;;;;;;40.10;21.67;;;;;;;;;;5044342;28;20154;-73
2022/12/19 13:57:23;;;;;;;41.03;22.63;;;;;;;;;;5042354;28;20035;-73
2022/12/19 13:59:50;;;;;;;38.15;21.08;;;;;;;;;;5039346;28;20036;-73
2022/12/19 14:02:21;;;;;;;53.28;36.28;;;;;;;;;;5040194;28;20754;-73
2022/12/19 14:04:47;;;;;;;40.78;26.58;;;;;;;;;;5043233;28;20090;-73
2022/12/19 14:07:22;;;;;;;32.30;18.65;;;;;;;;;;5039284;28;20033;-73
2022/12/19 14:09:50;;;;;;;31.55;19.17;;;;;;;;;;5045224;28;20353;-73
2022/12/19 14:15:12;;;;;;;38.35;22.15;;;;;;;;;;5042801;28;20036;-73
2022/12/19 14:15:20;;;;;;;35.35;20.42;;;;;;;;;;5043356;28;20544;-74
2022/12/19 14:17:49;;;;;;;37.25;22.48;;;;;;;;;;5040008;28;20095;-73
2022/12/19 14:20:23;;;;;;;42.95;21.95;;;;;;;;;;5041223;28;20024;-73
2022/12/19 14:22:49;;;;;;;32.72;17.33;;;;;;;;;;5018495;28;20037;-73
2022/12/19 14:25:16;;;;;;;38.28;22.88;;;;;;;;;;5043363;28;20029;-73
2022/12/19 14:27:44;;;;;;;41.92;21.33;;;;;;;;;;5044118;28;20116;-73
2022/12/19 14:30:17;;;;;;;41.25;21.17;;;;;;;;;;5041563;28;20037;-73
2022/12/19 14:32:44;;;;;;;40.65;20.42;;;;;;;;;;5041977;28;20116;-73
2022/12/19 14:35:14;;;;;;;34.13;17.63;;;;;;;;;;5041740;28;20033;-73
2022/12/19 14:37:42;;;;;;;33.95;16.63;;;;;;;;;;5040119;28;20025;-73
2022/12/19 14:40:12;;;;;;;29.10;14.50;;;;;;;;;;5041404;28;20021;-73
2022/12/19 14:45:33;;;;;;;25.77;12.00;;;;;;;;;;5045207;28;20795;-73